Terminal Aerodrome Forecast
Issued by NWS

Home | Current Version | Previous Version | Text Only | Print | Product List | Glossary On
Versions: 1 2 3 4 5 6 7 8 9 10 11 12 13 14 15
000
FTUS46 KMTR 292000 AAA
TAFSTS
TAF AMD
KSTS 292004Z 2920/3018 18011G15KT P6SM SCT250
     FM300400 15003KT P6SM BKN007
     FM300600 VRB02KT 5SM BR OVC003=

USA.gov is the U.S. government's official web portal to all federal, state and local government web resources and services.